My Meet Scores
Reagan Judge, Flipstar Gymnastics Academy - MyMeetScores.com
Top100 | Top Teams | Upcoming Meets | Completed Meets | Latest | Add Scores | Help| Support | Bookmark and Share

Reagan Judge, Flipstar Gymnastics Academy
Personal Bests
LevelVault BarsBeamFloorAA
39.6009.350 9.4509.50037.550
48.7008.650 9.2759.00035.275
Meet Scores
Date Meet Team Session Level Division Vault Bars Beam Floor AA
2019-03-22 Illinois Gymnastics State Championships Flipstar Gymnastics Academy 9 4 Ch E 8.400 23 8.650 21T 9.275 12T 8.950 12T 35.275 20
2019-02-23 Kinetic Classic 2019 Flipstar Gymnastics Academy 1 4 Younger 7.800 562T 7.850 549T 8.825 356T 8.850 348T 33.325 532T
2019-02-08 Midwest Twisters Harley Meet Womens Flipstar Gymnastics Academy T09 4 9a 8.000 12 7.950 10 8.650 9 8.450 8T 33.050 10
2019-01-25 King Arthur Invitational Flipstar Gymnastics Academy 1 4 Jr B 7.650 12 8.100 12 8.750 9 8.675 9 33.175 10
2019-01-11 Circle of Stars Gymnastics Flipstar Gymnastics Academy C07 4 Junior A 8.700 4 8.200 6 8.500 5 9.000 5 34.400 5
2018-12-07 Horton Invite Flipstar Gymnastics Academy 1 4 Chr B 8.475 13 7.950 20 8.200 20T 8.900 12T 33.525 18
2018-05-03 Illinois USA Gymnastics Level 3 State Championships Flipstar Gymnastics Academy 8 3 Ch E 9.600 4T 9.350 6T 9.225 5T 9.375 7T 37.550 5T
2018-02-23 Kinetic Classic Flipstar Gymnastics Academy 4 3 Younger 8.950 46* 8.800 72T 9.200 25T 9.400 28T 36.350 44T
2018-02-16 Big Classic Flipstar Gymnastics Academy 6B 3 Child A 8.850 10 9.350 6 9.450 2 9.325 5 36.975 5
2018-02-09 IGI Chicago Style Gymnastics Meet Flipstar Gymnastics Academy 42 3 631 LaSalle L3 B 9.000 16 8.800 12 9.350 5 9.500 4 36.650 9
2018-01-26 King Arthur Invitational Flipstar Gymnastics Academy 5 3 JRA 9.600 3 8.600 17 9.000 12 9.175 6 36.375 11
2018-01-19 Sand Dollar/ Whitlow Invitational Flipstar Gymnastics Academy E11 3 Jr A 9.450 4 7.700 18 9.025 6 8.700 10 34.875 8
2017-12-08 Horton Invite At IWU Shirk Center Flipstar Gymnastics Academy All 3 Chr B 9.550 2T 8.500 13 9.125 3T 9.150 3 36.325 3
2017-11-17 SCGA Classic Flipstar Gymnastics Academy 1 3 JrA 9.375 1 8.500 5 8.950 1 9.075 2 35.900 2
2017-11-10 Illinois NAWGJ Judges Cup 2017 Flipstar Gymnastics Academy S6 3 All Ages 9.425 7T 8.600 20T 8.700 16 9.375 1 36.100 5
2017-03-30 2017 Illinois Level 3 & 5 State Flipstar Gymnastics Academy All 3 Ch B 9.375 15T 8.675 24 7.225 30 8.825 15T 34.100 28
2017-02-24 Kinetic Classic Flipstar Gymnastics Academy 4,5,6,7 3 All Ages 9.050 67T 8.300 92T 8.375 88T 8.500 96T 34.225 89
2017-02-17 Big Classic Flipstar Gymnastics Academy B 3 Child A 9.150 14T 8.050 26T 8.750 16 9.000 12T 34.950 20
2017-02-10 IGI Chicago Style Gymnastics Meet Flipstar Gymnastics Academy 222L 3 JrA 8.875 13 8.525 19 8.525 13 8.550 19 34.475 17
2016-12-09 Horton Invitational Flipstar Gymnastics Academy 8 3 JrA 9.000 7 8.225 6 8.550 5 8.125 10 33.900 7
2016-11-11 2016 Illinois Judges Cup Flipstar Gymnastics Academy B5 3 6 and Unde 9.200 3 8.350 5 8.400 3 8.925 2 34.875 3
Click here to view our personalized
"Celebrate Your Season"
2018-19 Collection

www.lazysuits.com